createdAt,value
2023-04-23T00:01:35.304Z,2.00
2023-04-23T00:05:40.116Z,2.33
2023-04-23T00:09:43.498Z,2.08
2023-04-23T00:13:47.033Z,1.75
2023-04-23T00:17:49.283Z,3.55
2023-04-23T00:21:51.463Z,4.65
2023-04-23T00:25:53.852Z,1.88
2023-04-23T00:29:55.581Z,4.78
2023-04-23T00:33:57.442Z,5.45
2023-04-23T00:37:59.147Z,8.82
2023-04-23T00:42:07.032Z,5.53
2023-04-23T00:46:09.135Z,4.32
2023-04-23T00:50:11.585Z,6.68
2023-04-23T00:54:14.325Z,3.50
2023-04-23T00:58:16.235Z,5.50
2023-04-23T01:02:18.099Z,3.85
2023-04-23T01:06:20.030Z,2.63
2023-04-23T01:10:21.897Z,2.05
2023-04-23T01:14:23.798Z,1.65
2023-04-23T01:18:25.722Z,2.25
2023-04-23T01:22:27.855Z,3.75
2023-04-23T01:26:29.837Z,3.38
2023-04-23T01:30:31.728Z,3.85
2023-04-23T01:34:34.889Z,5.03
2023-04-23T01:38:38.679Z,2.90
2023-04-23T01:42:41.260Z,7.13
2023-04-23T01:46:43.301Z,4.93
2023-04-23T01:50:45.146Z,3.67
2023-04-23T01:54:48.220Z,2.55
2023-04-23T01:58:51.840Z,2.70
2023-04-23T02:02:53.964Z,1.63
2023-04-23T02:06:56.037Z,2.17
2023-04-23T02:10:57.768Z,2.00
2023-04-23T02:14:59.485Z,2.08
2023-04-23T02:19:01.892Z,1.50
2023-04-23T02:23:03.717Z,4.05
2023-04-23T02:27:05.453Z,3.13
2023-04-23T02:31:07.311Z,4.40
2023-04-23T02:35:10.459Z,3.92
2023-04-23T02:39:12.305Z,3.13
2023-04-23T02:43:14.030Z,2.90
2023-04-23T02:47:15.783Z,3.72
2023-04-23T02:51:17.562Z,2.15
2023-04-23T02:55:19.349Z,5.22
2023-04-23T02:59:21.150Z,2.92
2023-04-23T03:03:26.540Z,3.63
2023-04-23T03:07:28.500Z,2.85
2023-04-23T03:11:30.768Z,4.43
2023-04-23T03:15:33.097Z,2.90
2023-04-23T03:19:34.849Z,3.33
2023-04-23T03:23:37.132Z,8.13
2023-04-23T03:27:40.632Z,2.75
2023-04-23T03:31:43.050Z,2.53
2023-04-23T03:35:45.857Z,1.70
2023-04-23T03:39:52.300Z,2.17
2023-04-23T03:43:54.717Z,7.28
2023-04-23T03:48:11.903Z,6.38
2023-04-23T03:52:14.526Z,5.95
2023-04-23T03:56:17.481Z,4.32
2023-04-23T04:00:28.569Z,5.20
2023-04-23T04:04:31.909Z,3.58
2023-04-23T04:08:34.381Z,4.10
2023-04-23T04:12:36.758Z,7.43
2023-04-23T04:16:38.621Z,4.25
2023-04-23T04:20:43.367Z,3.70
2023-04-23T04:24:47.727Z,2.33
2023-04-23T04:28:51.640Z,2.60
2023-04-23T04:32:53.776Z,3.60
2023-04-23T04:36:55.920Z,3.63
2023-04-23T04:41:02.305Z,4.18
2023-04-23T04:45:04.865Z,3.03
2023-04-23T04:49:11.273Z,2.25
2023-04-23T04:53:14.600Z,2.75
2023-04-23T04:57:16.670Z,3.25
2023-04-23T05:01:20.372Z,2.50
2023-04-23T05:05:23.285Z,1.90
2023-04-23T05:09:25.724Z,3.88
2023-04-23T05:13:27.560Z,3.78
2023-04-23T05:17:29.328Z,3.70
2023-04-23T05:21:31.559Z,2.40
2023-04-23T05:25:34.572Z,2.33
2023-04-23T05:29:36.258Z,3.03
2023-04-23T05:33:49.220Z,1.90
2023-04-23T05:37:51.940Z,2.67
2023-04-23T05:41:53.859Z,2.67
2023-04-23T05:45:55.653Z,2.47
2023-04-23T05:49:57.492Z,6.63
2023-04-23T05:53:59.203Z,4.63
2023-04-23T05:58:00.958Z,4.38
2023-04-23T06:02:02.999Z,5.90
2023-04-23T06:06:04.828Z,5.60
2023-04-23T06:10:07.331Z,3.75
2023-04-23T06:14:09.061Z,3.40
2023-04-23T06:18:10.783Z,4.70
2023-04-23T06:22:12.542Z,5.35
2023-04-23T06:26:14.374Z,5.15
2023-04-23T06:30:16.939Z,8.77
2023-04-23T06:34:19.625Z,5.72
2023-04-23T06:38:23.004Z,4.68
2023-04-23T06:42:24.762Z,4.35
2023-04-23T06:46:44.849Z,6.32
2023-04-23T06:50:46.918Z,5.38
2023-04-23T06:54:48.653Z,5.78
2023-04-23T06:58:50.375Z,4.78
2023-04-23T07:02:56.370Z,4.45
2023-04-23T07:06:58.357Z,5.65
2023-04-23T07:11:00.109Z,5.10
2023-04-23T07:15:02.020Z,5.63
2023-04-23T07:19:03.857Z,5.18
2023-04-23T07:23:05.580Z,8.13
2023-04-23T07:27:07.766Z,4.40
2023-04-23T07:31:10.618Z,4.40
2023-04-23T07:35:12.465Z,6.68
2023-04-23T07:39:14.282Z,13.05
2023-04-23T07:43:16.896Z,6.85
2023-04-23T07:47:18.608Z,6.20
2023-04-23T07:51:22.432Z,6.28
2023-04-23T07:55:24.272Z,6.35
2023-04-23T07:59:25.997Z,5.80
2023-04-23T08:03:29.209Z,4.90
2023-04-23T08:07:31.225Z,5.47
2023-04-23T08:11:33.746Z,4.50
2023-04-23T08:15:35.821Z,5.53
2023-04-23T08:19:37.598Z,4.18
2023-04-23T08:23:39.366Z,5.40
2023-04-23T08:27:41.128Z,6.03
2023-04-23T08:31:42.969Z,4.97
2023-04-23T08:35:44.700Z,8.02
2023-04-23T08:39:46.473Z,6.40
2023-04-23T08:43:59.045Z,4.97
2023-04-23T08:48:02.686Z,3.13
2023-04-23T08:52:25.613Z,3.78
2023-04-23T08:56:27.478Z,4.45
2023-04-23T09:00:29.722Z,2.70
2023-04-23T09:04:31.709Z,2.72
2023-04-23T09:08:33.909Z,3.15
2023-04-23T09:12:36.488Z,5.90
2023-04-23T09:16:40.951Z,4.82
2023-04-23T09:20:44.515Z,2.67
2023-04-23T09:24:46.249Z,3.20
2023-04-23T09:28:54.004Z,3.63
2023-04-23T09:32:55.796Z,3.10
2023-04-23T09:37:00.133Z,3.30
2023-04-23T09:41:24.452Z,3.75
2023-04-23T09:45:26.297Z,3.40
2023-04-23T09:49:28.004Z,2.88
2023-04-23T09:53:29.814Z,11.23
2023-04-23T09:57:44.053Z,4.57
2023-04-23T10:01:46.368Z,3.58
2023-04-23T10:06:00.312Z,13.52
2023-04-23T10:10:04.073Z,4.85
2023-04-23T10:14:06.672Z,7.18
2023-04-23T10:18:09.226Z,1.88
2023-04-23T10:26:20.229Z,2.20
2023-04-23T10:30:22.829Z,7.15
2023-04-23T10:34:27.168Z,6.50
2023-04-23T10:38:29.657Z,5.97
2023-04-23T10:42:31.929Z,2.03
2023-04-23T10:46:36.480Z,2.50
2023-04-23T10:50:53.239Z,1.52
2023-04-23T10:55:03.379Z,1.20
2023-04-23T10:59:18.491Z,1.92
2023-04-23T11:03:32.088Z,0.75
2023-04-23T11:07:34.346Z,0.80
2023-04-23T11:11:41.538Z,0.70
2023-04-23T11:15:43.217Z,0.77
2023-04-23T11:20:03.819Z,0.73
2023-04-23T11:24:07.773Z,0.88
2023-04-23T11:28:09.915Z,1.50
2023-04-23T11:32:13.606Z,1.65
2023-04-23T11:36:15.731Z,1.52
2023-04-23T11:40:20.093Z,0.80
2023-04-23T11:44:22.358Z,0.80
2023-04-23T11:48:24.084Z,1.05
2023-04-23T11:52:26.736Z,0.93
2023-04-23T11:56:31.343Z,1.17
2023-04-23T12:00:33.084Z,1.05
2023-04-23T12:04:34.799Z,0.85
2023-04-23T12:08:36.985Z,1.17
2023-04-23T12:12:38.702Z,1.25
2023-04-23T12:16:44.253Z,1.30
2023-04-23T12:20:46.310Z,1.20
2023-04-23T12:24:54.481Z,0.93
2023-04-23T12:28:59.868Z,2.20
2023-04-23T12:33:02.495Z,1.20
2023-04-23T12:37:07.516Z,1.10
2023-04-23T12:41:09.369Z,1.00
2023-04-23T12:45:11.300Z,1.20
2023-04-23T12:49:13.068Z,0.90
2023-04-23T12:53:15.132Z,1.05
2023-04-23T12:57:17.806Z,1.20
2023-04-23T13:01:20.449Z,0.65
2023-04-23T13:05:22.356Z,3.03
2023-04-23T13:09:26.783Z,3.15
2023-04-23T13:13:28.818Z,1.20
2023-04-23T13:17:31.329Z,1.02
2023-04-23T13:21:33.081Z,0.70
2023-04-23T13:25:35.507Z,0.80
2023-04-23T13:29:37.283Z,1.00
2023-04-23T13:33:39.336Z,1.20
2023-04-23T13:37:41.510Z,0.90
2023-04-23T13:41:43.305Z,1.20
2023-04-23T13:45:46.734Z,1.10
2023-04-23T13:49:48.424Z,0.90
2023-04-23T13:53:50.133Z,1.55
2023-04-23T13:57:52.044Z,0.90
2023-04-23T14:01:53.956Z,1.23
2023-04-23T14:05:55.677Z,0.95
2023-04-23T14:09:57.379Z,1.25
2023-04-23T14:14:01.103Z,0.90
2023-04-23T14:18:02.920Z,0.95
2023-04-23T14:22:04.717Z,1.00
2023-04-23T14:26:09.525Z,1.85
2023-04-23T14:30:17.217Z,0.80
2023-04-23T14:34:18.943Z,0.90
2023-04-23T14:38:20.675Z,1.15
2023-04-23T14:42:22.375Z,1.88
2023-04-23T14:46:24.073Z,0.90
2023-04-23T14:50:28.260Z,0.77
2023-04-23T14:54:29.991Z,1.13
2023-04-23T14:58:31.691Z,0.70
2023-04-23T15:02:34.380Z,0.75
2023-04-23T15:06:36.519Z,0.70
2023-04-23T15:10:38.341Z,1.10
2023-04-23T15:14:43.825Z,1.08
2023-04-23T15:18:46.270Z,0.80
2023-04-23T15:22:48.852Z,0.82
2023-04-23T15:26:53.264Z,1.42
2023-04-23T15:30:55.025Z,1.00
2023-04-23T15:34:56.737Z,0.95
2023-04-23T15:38:58.406Z,0.90
2023-04-23T15:43:00.219Z,0.95
2023-04-23T15:47:03.385Z,0.60
2023-04-23T15:51:05.981Z,0.80
2023-04-23T15:55:08.322Z,0.77
2023-04-23T15:59:10.066Z,1.05
2023-04-23T16:03:15.065Z,0.98
2023-04-23T16:07:17.230Z,1.23
2023-04-23T16:11:18.971Z,1.00
2023-04-23T16:15:20.801Z,0.70
2023-04-23T16:19:22.474Z,1.10
2023-04-23T16:23:24.260Z,0.60
2023-04-23T16:27:26.056Z,0.90
2023-04-23T16:31:27.952Z,0.80
2023-04-23T16:35:29.760Z,0.93
2023-04-23T16:39:31.477Z,1.10
2023-04-23T16:43:33.257Z,0.98
2023-04-23T16:47:35.058Z,1.10
2023-04-23T16:51:36.785Z,1.00
2023-04-23T16:55:38.841Z,0.80
2023-04-23T16:59:41.397Z,0.85
2023-04-23T17:03:46.268Z,1.73
2023-04-23T17:07:48.228Z,0.90
2023-04-23T17:11:49.942Z,1.70
2023-04-23T17:15:51.650Z,0.80
2023-04-23T17:19:53.387Z,1.00
2023-04-23T17:23:55.133Z,1.52
2023-04-23T17:27:56.862Z,1.00
2023-04-23T17:31:58.835Z,0.80
2023-04-23T17:36:00.805Z,0.90
2023-04-23T17:40:03.089Z,2.15
2023-04-23T17:44:04.813Z,1.30
2023-04-23T17:48:06.587Z,2.53
2023-04-23T17:52:08.606Z,1.30
2023-04-23T17:56:10.345Z,2.47
2023-04-23T18:00:13.796Z,1.48
2023-04-23T18:04:17.653Z,1.08
2023-04-23T18:08:21.233Z,1.50
2023-04-23T18:12:23.129Z,2.15
2023-04-23T18:16:24.922Z,1.10
2023-04-23T18:20:27.000Z,0.90
2023-04-23T18:24:28.841Z,1.70
2023-04-23T18:28:30.750Z,0.95
2023-04-23T18:32:40.046Z,1.20
2023-04-23T18:36:44.633Z,0.73
2023-04-23T18:40:46.336Z,2.35
2023-04-23T18:44:48.040Z,1.00
2023-04-23T18:49:00.027Z,1.08
2023-04-23T18:53:01.765Z,2.80
2023-04-23T18:57:03.545Z,0.90
2023-04-23T19:01:05.926Z,0.80
2023-04-23T19:05:08.354Z,0.80
2023-04-23T19:09:10.133Z,1.13
2023-04-23T19:13:12.020Z,0.80
2023-04-23T19:17:13.757Z,0.85
2023-04-23T19:21:15.596Z,0.75
2023-04-23T19:25:17.506Z,0.70
2023-04-23T19:33:32.884Z,2.10
2023-04-23T19:37:36.068Z,3.50
2023-04-23T19:41:37.865Z,3.30
2023-04-23T19:45:39.751Z,3.53
2023-04-23T19:49:41.837Z,2.47
2023-04-23T19:53:44.292Z,1.63
2023-04-23T19:57:46.182Z,1.40
2023-04-23T20:01:48.396Z,1.52
2023-04-23T20:05:52.320Z,1.20
2023-04-23T20:09:54.335Z,1.30
2023-04-23T20:13:56.248Z,1.13
2023-04-23T20:17:58.062Z,2.42
2023-04-23T20:21:59.873Z,1.77
2023-04-23T20:26:01.626Z,1.50
2023-04-23T20:30:04.718Z,2.47
2023-04-23T20:34:06.989Z,1.92
2023-04-23T20:38:08.899Z,3.35
2023-04-23T20:42:10.678Z,4.20
2023-04-23T20:46:12.802Z,3.83
2023-04-23T20:50:14.645Z,3.55
2023-04-23T20:54:16.530Z,3.08
2023-04-23T20:58:18.418Z,4.05
2023-04-23T21:02:20.335Z,3.22
2023-04-23T21:06:22.501Z,1.90
2023-04-23T21:10:24.352Z,2.10
2023-04-23T21:14:26.217Z,1.65
2023-04-23T21:18:28.072Z,3.15
2023-04-23T21:22:29.943Z,3.05
2023-04-23T21:26:32.054Z,1.75
2023-04-23T21:30:41.487Z,1.50
2023-04-23T21:34:43.269Z,1.52
2023-04-23T21:38:45.015Z,2.65
2023-04-23T21:42:47.688Z,2.20
2023-04-23T21:46:49.532Z,3.75
2023-04-23T21:50:53.642Z,1.80
2023-04-23T21:54:55.467Z,1.60
2023-04-23T21:58:57.307Z,2.22
2023-04-23T22:02:59.274Z,2.42
2023-04-23T22:07:04.360Z,1.80
2023-04-23T22:11:08.360Z,3.53
2023-04-23T22:15:13.166Z,3.50
2023-04-23T22:19:16.116Z,3.80
2023-04-23T22:23:17.978Z,3.83
2023-04-23T22:27:19.815Z,4.00
2023-04-23T22:31:21.635Z,8.18
2023-04-23T22:35:23.542Z,5.05
2023-04-23T22:39:25.410Z,3.55
2023-04-23T22:43:27.190Z,3.40
2023-04-23T22:47:28.958Z,2.10
2023-04-23T22:51:33.517Z,1.95
2023-04-23T22:55:35.430Z,1.77
2023-04-23T22:59:39.000Z,1.70
2023-04-23T23:03:40.785Z,1.25
2023-04-23T23:07:42.679Z,1.30
2023-04-23T23:11:44.544Z,1.38
2023-04-23T23:15:46.424Z,1.13
2023-04-23T23:19:48.301Z,0.95
2023-04-23T23:23:50.470Z,1.35
2023-04-23T23:27:52.258Z,0.90
2023-04-23T23:31:54.650Z,0.70
2023-04-23T23:35:57.482Z,2.03
2023-04-23T23:39:59.318Z,1.70
2023-04-23T23:44:01.090Z,1.30
2023-04-23T23:48:05.653Z,1.98
2023-04-23T23:52:07.610Z,1.73
2023-04-23T23:56:09.379Z,2.15
